createdAt,value
2022-08-16T00:00:03.432Z,21.82
2022-08-16T00:00:07.085Z,21.82
2022-08-16T00:00:22.022Z,21.85
2022-08-16T00:00:28.125Z,21.81
2022-08-16T00:00:39.308Z,21.81
2022-08-16T00:00:49.236Z,21.75
2022-08-16T00:00:59.414Z,21.77
2022-08-16T00:01:09.427Z,21.75
2022-08-16T00:01:19.525Z,21.85
2022-08-16T00:01:33.927Z,21.75
2022-08-16T00:01:40.660Z,21.75
2022-08-16T00:01:50.687Z,21.79
2022-08-16T00:02:00.792Z,21.82
2022-08-16T00:02:13.223Z,21.82
2022-08-16T00:02:20.957Z,21.82
2022-08-16T00:02:31.108Z,21.82
2022-08-16T00:02:41.167Z,21.77
2022-08-16T00:02:51.721Z,21.83
2022-08-16T00:03:01.285Z,21.82
2022-08-16T00:03:13.663Z,21.82
2022-08-16T00:03:21.425Z,21.79
2022-08-16T00:03:31.465Z,21.77
2022-08-16T00:03:42.433Z,21.77
2022-08-16T00:03:52.499Z,21.75
2022-08-16T00:04:05.233Z,21.75
2022-08-16T00:04:12.635Z,21.74
2022-08-16T00:04:22.696Z,21.75
2022-08-16T00:04:32.775Z,21.73
2022-08-16T00:04:42.863Z,21.75
2022-08-16T00:04:52.926Z,21.75
2022-08-16T00:05:02.998Z,21.68
2022-08-16T00:05:13.064Z,21.74
2022-08-16T00:05:23.178Z,21.74
2022-08-16T00:05:35.140Z,21.73
2022-08-16T00:05:48.479Z,21.70
2022-08-16T00:05:57.575Z,21.75
2022-08-16T00:06:04.538Z,21.68
2022-08-16T00:06:15.445Z,21.68
2022-08-16T00:06:24.605Z,21.75
2022-08-16T00:06:34.675Z,21.70
2022-08-16T00:06:44.773Z,21.73
2022-08-16T00:06:54.830Z,21.67
2022-08-16T00:07:04.895Z,21.73
2022-08-16T00:07:14.955Z,21.70
2022-08-16T00:07:25.065Z,21.67
2022-08-16T00:07:35.127Z,21.70
2022-08-16T00:07:45.181Z,21.71
2022-08-16T00:07:56.472Z,21.66
2022-08-16T00:08:05.294Z,21.70
2022-08-16T00:08:30.631Z,21.73
2022-08-16T00:08:35.708Z,21.67
2022-08-16T00:08:37.635Z,21.66
2022-08-16T00:08:47.336Z,21.71
2022-08-16T00:08:57.455Z,21.71
2022-08-16T00:09:07.514Z,21.66
2022-08-16T00:09:17.547Z,21.71
2022-08-16T00:09:27.596Z,21.66
2022-08-16T00:09:37.686Z,21.66
2022-08-16T00:09:47.705Z,21.66
2022-08-16T00:09:57.776Z,21.63
2022-08-16T00:10:07.783Z,21.64
2022-08-16T00:10:21.066Z,21.67
2022-08-16T00:10:28.786Z,21.64
2022-08-16T00:10:38.845Z,21.64
2022-08-16T00:10:48.855Z,21.55
2022-08-16T00:10:58.936Z,21.64
2022-08-16T00:11:15.328Z,21.68
2022-08-16T00:11:19.945Z,21.64
2022-08-16T00:11:30.105Z,21.66
2022-08-16T00:11:40.155Z,21.68
2022-08-16T00:11:52.773Z,21.67
2022-08-16T00:12:01.175Z,21.56
2022-08-16T00:12:11.225Z,21.67
2022-08-16T00:12:22.186Z,21.63
2022-08-16T00:12:32.226Z,21.63
2022-08-16T00:12:42.406Z,21.64
2022-08-16T00:12:52.398Z,21.59
2022-08-16T00:13:02.515Z,21.63
2022-08-16T00:13:12.625Z,21.61
2022-08-16T00:13:22.716Z,21.63
2022-08-16T00:13:32.796Z,21.63
2022-08-16T00:13:43.765Z,21.61
2022-08-16T00:13:55.607Z,21.67
2022-08-16T00:14:08.608Z,21.59
2022-08-16T00:14:14.874Z,21.66
2022-08-16T00:14:25.047Z,21.61
2022-08-16T00:14:35.066Z,21.70
2022-08-16T00:14:45.098Z,21.70
2022-08-16T00:14:56.815Z,21.68
2022-08-16T00:15:05.304Z,21.68
2022-08-16T00:15:17.020Z,21.66
2022-08-16T00:15:26.311Z,21.67
2022-08-16T00:15:51.740Z,21.63
2022-08-16T00:15:51.887Z,21.64
2022-08-16T00:15:59.206Z,21.68
2022-08-16T00:17:01.535Z,21.67
2022-08-16T00:17:05.459Z,21.68
2022-08-16T00:17:05.505Z,21.68
2022-08-16T00:17:05.987Z,21.66
2022-08-16T00:17:06.509Z,21.64
2022-08-16T00:17:16.347Z,21.64
2022-08-16T00:17:18.557Z,21.67
2022-08-16T00:17:25.109Z,21.67
2022-08-16T00:17:56.065Z,21.70
2022-08-16T00:17:56.514Z,21.63
2022-08-16T00:17:57.521Z,21.64
2022-08-16T00:18:07.265Z,21.68
2022-08-16T00:18:17.418Z,21.64
2022-08-16T00:18:30.016Z,21.71
2022-08-16T00:18:37.615Z,21.68
2022-08-16T00:18:47.816Z,21.61
2022-08-16T00:18:58.175Z,21.64
2022-08-16T00:19:07.826Z,21.67
2022-08-16T00:19:17.975Z,21.70
2022-08-16T00:19:28.433Z,21.67
2022-08-16T00:19:41.277Z,21.67
2022-08-16T00:19:53.592Z,21.66
2022-08-16T00:19:59.206Z,21.67
2022-08-16T00:20:12.404Z,21.70
2022-08-16T00:20:21.084Z,21.71
2022-08-16T00:20:29.694Z,21.63
2022-08-16T00:20:39.836Z,21.70
2022-08-16T00:20:50.753Z,21.63
2022-08-16T00:21:00.095Z,21.64
2022-08-16T00:21:10.176Z,21.73
2022-08-16T00:21:20.253Z,21.64
2022-08-16T00:21:30.374Z,21.63
2022-08-16T00:21:40.377Z,21.73
2022-08-16T00:21:53.288Z,21.66
2022-08-16T00:22:03.170Z,21.67
2022-08-16T00:22:13.356Z,21.63
2022-08-16T00:22:24.947Z,21.67
2022-08-16T00:22:32.526Z,21.70
2022-08-16T00:22:45.411Z,21.67
2022-08-16T00:22:52.736Z,21.66
2022-08-16T00:23:02.796Z,21.63
2022-08-16T00:23:12.886Z,21.66
2022-08-16T00:23:24.615Z,21.61
2022-08-16T00:23:40.427Z,21.63
2022-08-16T00:23:46.284Z,21.61
2022-08-16T00:23:55.017Z,21.66
2022-08-16T00:24:05.140Z,21.64
2022-08-16T00:24:32.562Z,21.61
2022-08-16T00:24:32.660Z,21.63
2022-08-16T00:24:38.035Z,21.63
2022-08-16T00:24:50.141Z,21.66
2022-08-16T00:24:58.217Z,21.64
2022-08-16T00:25:08.304Z,21.66
2022-08-16T00:25:18.312Z,21.64
2022-08-16T00:26:33.493Z,21.64
2022-08-16T00:26:35.192Z,21.59
2022-08-16T00:26:35.392Z,21.61
2022-08-16T00:26:35.540Z,21.64
2022-08-16T00:26:36.100Z,21.66
2022-08-16T00:26:36.452Z,21.64
2022-08-16T00:26:36.823Z,21.63
2022-08-16T00:26:45.424Z,21.61
2022-08-16T00:26:55.316Z,21.63
2022-08-16T00:27:05.333Z,21.67
2022-08-16T00:27:15.485Z,21.64
2022-08-16T00:27:25.646Z,21.61
2022-08-16T00:27:36.607Z,21.61
2022-08-16T00:27:47.101Z,21.64
2022-08-16T00:27:56.686Z,21.63
2022-08-16T00:28:06.803Z,21.59
2022-08-16T00:28:16.899Z,21.64
2022-08-16T00:28:28.535Z,21.67
2022-08-16T00:28:37.016Z,21.68
2022-08-16T00:28:47.092Z,21.63
2022-08-16T00:28:57.174Z,21.64
2022-08-16T00:29:07.395Z,21.64
2022-08-16T00:29:17.526Z,21.66
2022-08-16T00:29:29.679Z,21.68
2022-08-16T00:29:37.776Z,21.64
2022-08-16T00:29:47.876Z,21.64
2022-08-16T00:30:08.627Z,21.63
2022-08-16T00:30:19.533Z,21.63
2022-08-16T00:30:28.639Z,21.58
2022-08-16T00:30:31.736Z,21.63
2022-08-16T00:30:41.824Z,21.64
2022-08-16T00:30:51.956Z,21.61
2022-08-16T00:31:01.975Z,21.58
2022-08-16T00:31:12.007Z,21.61
2022-08-16T00:31:24.232Z,21.66
2022-08-16T00:31:59.435Z,21.68
2022-08-16T00:31:59.678Z,21.59
2022-08-16T00:31:59.867Z,21.67
2022-08-16T00:32:05.966Z,21.55
2022-08-16T00:32:18.029Z,21.58
2022-08-16T00:32:25.497Z,21.66
2022-08-16T00:32:35.567Z,21.66
2022-08-16T00:32:45.791Z,21.61
2022-08-16T00:32:57.108Z,21.64
2022-08-16T00:33:05.815Z,21.64
2022-08-16T00:33:15.916Z,21.61
2022-08-16T00:33:25.996Z,21.63
2022-08-16T00:33:36.147Z,21.64
2022-08-16T00:33:50.091Z,21.66
2022-08-16T00:33:56.227Z,21.64
2022-08-16T00:34:06.307Z,21.63
2022-08-16T00:34:18.512Z,21.67
2022-08-16T00:34:41.240Z,21.66
2022-08-16T00:34:44.167Z,21.55
2022-08-16T00:34:53.319Z,21.63
2022-08-16T00:35:00.667Z,21.61
2022-08-16T00:35:14.937Z,21.63
2022-08-16T00:35:20.304Z,21.64
2022-08-16T00:35:30.360Z,21.58
2022-08-16T00:35:40.375Z,21.56
2022-08-16T00:35:50.526Z,21.64
2022-08-16T00:36:00.776Z,21.67
2022-08-16T00:36:10.946Z,21.64
2022-08-16T00:36:21.056Z,21.61
2022-08-16T00:36:31.134Z,21.64
2022-08-16T00:36:47.307Z,21.64
2022-08-16T00:36:55.898Z,21.61
2022-08-16T00:37:03.525Z,21.63
2022-08-16T00:37:12.387Z,21.61
2022-08-16T00:37:24.523Z,21.64
2022-08-16T00:37:57.311Z,21.58
2022-08-16T00:37:57.727Z,21.61
2022-08-16T00:37:58.285Z,21.59
2022-08-16T00:38:40.572Z,21.63
2022-08-16T00:38:41.297Z,21.58
2022-08-16T00:38:41.367Z,21.55
2022-08-16T00:38:43.340Z,21.53
2022-08-16T00:38:49.396Z,21.59
2022-08-16T00:38:59.477Z,21.59
2022-08-16T00:39:09.516Z,21.59
2022-08-16T00:39:20.477Z,21.63
2022-08-16T00:39:30.599Z,21.58
2022-08-16T00:39:40.532Z,21.56
2022-08-16T00:39:57.187Z,21.58
2022-08-16T00:40:01.616Z,21.58
2022-08-16T00:40:33.567Z,21.61
2022-08-16T00:40:34.809Z,21.55
2022-08-16T00:40:36.498Z,21.59
2022-08-16T00:40:53.506Z,21.55
2022-08-16T00:40:54.878Z,21.53
2022-08-16T00:41:05.824Z,21.52
2022-08-16T00:41:14.997Z,21.52
2022-08-16T00:41:25.007Z,21.55
2022-08-16T00:41:38.288Z,21.53
2022-08-16T00:41:45.037Z,21.53
2022-08-16T00:41:55.215Z,21.61
2022-08-16T00:42:05.286Z,21.61
2022-08-16T00:42:29.983Z,21.58
2022-08-16T00:42:30.444Z,21.59
2022-08-16T00:42:37.254Z,21.53
2022-08-16T00:42:47.523Z,21.56
2022-08-16T00:42:58.383Z,21.55
2022-08-16T00:43:12.045Z,21.61
2022-08-16T00:43:19.620Z,21.58
2022-08-16T00:43:42.426Z,21.59
2022-08-16T00:43:42.914Z,21.56
2022-08-16T00:43:50.824Z,21.52
2022-08-16T00:44:00.897Z,21.58
2022-08-16T00:44:11.017Z,21.55
2022-08-16T00:44:21.083Z,21.55
2022-08-16T00:44:31.959Z,21.61
2022-08-16T00:44:41.256Z,21.56
2022-08-16T00:44:51.377Z,21.51
2022-08-16T00:45:01.504Z,21.55
2022-08-16T00:45:12.466Z,21.56
2022-08-16T00:45:25.158Z,21.55
2022-08-16T00:45:35.541Z,21.56
2022-08-16T00:45:58.226Z,21.53
2022-08-16T00:45:58.360Z,21.55
2022-08-16T00:46:33.117Z,21.58
2022-08-16T00:46:34.032Z,21.58
2022-08-16T00:46:34.555Z,21.55
2022-08-16T00:46:37.654Z,21.56
2022-08-16T00:46:52.627Z,21.49
2022-08-16T00:47:05.952Z,21.58
2022-08-16T00:47:09.797Z,21.49
2022-08-16T00:47:19.907Z,21.59
2022-08-16T00:47:30.157Z,21.55
2022-08-16T00:47:40.058Z,21.58
2022-08-16T00:47:50.236Z,21.56
2022-08-16T00:48:00.330Z,21.61
2022-08-16T00:48:30.609Z,21.51
2022-08-16T00:48:30.996Z,21.55
2022-08-16T00:48:44.109Z,21.52
2022-08-16T00:48:44.289Z,21.53
2022-08-16T00:48:53.357Z,21.55
2022-08-16T00:49:03.558Z,21.56
2022-08-16T00:49:17.648Z,21.55
2022-08-16T00:49:24.614Z,21.49
2022-08-16T00:49:39.595Z,21.56
2022-08-16T00:49:45.676Z,21.55
2022-08-16T00:49:56.939Z,21.51
2022-08-16T00:50:11.544Z,21.53
2022-08-16T00:50:17.615Z,21.51
2022-08-16T00:50:35.926Z,21.55
2022-08-16T00:50:38.820Z,21.48
2022-08-16T00:50:48.767Z,21.56
2022-08-16T00:50:59.785Z,21.52
2022-08-16T00:51:09.868Z,21.56
2022-08-16T00:51:20.826Z,21.51
2022-08-16T00:51:30.857Z,21.55
2022-08-16T00:51:40.937Z,21.53
2022-08-16T00:51:54.844Z,21.52
2022-08-16T00:52:01.247Z,21.56
2022-08-16T00:52:30.338Z,21.53
2022-08-16T00:52:30.360Z,21.51
2022-08-16T00:52:33.317Z,21.49
2022-08-16T00:52:50.351Z,21.51
2022-08-16T00:52:54.655Z,21.51
2022-08-16T00:53:04.507Z,21.58
2022-08-16T00:53:14.587Z,21.51
2022-08-16T00:53:24.677Z,21.55
2022-08-16T00:53:34.757Z,21.55
2022-08-16T00:53:44.886Z,21.49
2022-08-16T00:53:54.888Z,21.53
2022-08-16T00:54:04.956Z,21.49
2022-08-16T00:54:15.018Z,21.52
2022-08-16T00:54:26.045Z,21.49
2022-08-16T00:54:36.036Z,21.55
2022-08-16T00:54:46.127Z,21.48
2022-08-16T00:54:56.265Z,21.52
2022-08-16T00:55:06.955Z,21.52
2022-08-16T00:55:16.417Z,21.51
2022-08-16T00:55:26.538Z,21.51
2022-08-16T00:55:37.883Z,21.49
2022-08-16T00:55:47.667Z,21.51
2022-08-16T00:55:57.768Z,21.46
2022-08-16T00:56:07.867Z,21.52
2022-08-16T00:56:55.471Z,21.52
2022-08-16T00:56:55.940Z,21.48
2022-08-16T00:56:56.363Z,21.43
2022-08-16T00:56:56.785Z,21.45
2022-08-16T00:57:01.889Z,21.51
2022-08-16T00:57:12.008Z,21.52
2022-08-16T00:57:23.857Z,21.46
2022-08-16T00:57:59.015Z,21.46
2022-08-16T00:57:59.132Z,21.52
2022-08-16T00:57:59.816Z,21.52
2022-08-16T00:58:05.207Z,21.46
2022-08-16T00:58:16.456Z,21.49
2022-08-16T00:58:34.522Z,21.49
2022-08-16T00:58:38.107Z,21.49
2022-08-16T00:58:48.116Z,21.48
2022-08-16T00:58:58.205Z,21.51
2022-08-16T00:59:08.238Z,21.48
2022-08-16T00:59:18.256Z,21.49
2022-08-16T00:59:28.345Z,21.46
2022-08-16T00:59:42.449Z,21.49
2022-08-16T00:59:58.779Z,21.45
2022-08-16T01:00:01.083Z,21.49
2022-08-16T01:00:10.609Z,21.48
2022-08-16T01:00:23.780Z,21.45
2022-08-16T01:00:31.790Z,21.43
2022-08-16T01:00:41.787Z,21.48
2022-08-16T01:00:54.317Z,21.51
2022-08-16T01:01:02.068Z,21.46
2022-08-16T01:01:12.090Z,21.45
2022-08-16T01:01:22.084Z,21.49
2022-08-16T01:01:32.176Z,21.51
2022-08-16T01:01:42.247Z,21.46
2022-08-16T01:01:52.364Z,21.45
2022-08-16T01:02:30.299Z,21.48
2022-08-16T01:02:30.335Z,21.48
2022-08-16T01:02:31.246Z,21.48
2022-08-16T01:02:35.307Z,21.46
2022-08-16T01:02:46.882Z,21.49
2022-08-16T01:02:55.467Z,21.45
2022-08-16T01:03:05.547Z,21.53
2022-08-16T01:03:15.607Z,21.43
2022-08-16T01:03:30.163Z,21.49
2022-08-16T01:03:36.597Z,21.43
2022-08-16T01:03:46.726Z,21.46
2022-08-16T01:03:56.828Z,21.46
2022-08-16T01:04:06.998Z,21.46
2022-08-16T01:04:29.497Z,21.40
2022-08-16T01:04:30.837Z,21.45
2022-08-16T01:04:39.175Z,21.42
2022-08-16T01:05:10.608Z,21.43
2022-08-16T01:05:11.221Z,21.46
2022-08-16T01:05:12.015Z,21.40
2022-08-16T01:05:24.041Z,21.48
2022-08-16T01:05:32.901Z,21.48
2022-08-16T01:05:41.547Z,21.46
2022-08-16T01:05:51.597Z,21.46
2022-08-16T01:06:32.565Z,21.45
2022-08-16T01:06:32.725Z,21.46
2022-08-16T01:06:40.576Z,21.43
2022-08-16T01:06:48.676Z,21.38
2022-08-16T01:06:49.165Z,21.45
2022-08-16T01:07:02.012Z,21.49
2022-08-16T01:07:06.746Z,21.48
2022-08-16T01:07:17.757Z,21.45
2022-08-16T01:07:26.758Z,21.43
2022-08-16T01:07:51.150Z,21.40
2022-08-16T01:07:51.227Z,21.40
2022-08-16T01:07:58.697Z,21.37
2022-08-16T01:08:35.197Z,21.43
2022-08-16T01:08:35.931Z,21.42
2022-08-16T01:08:36.031Z,21.43
2022-08-16T01:08:41.627Z,21.40
2022-08-16T01:08:51.790Z,21.38
2022-08-16T01:09:01.847Z,21.42
2022-08-16T01:09:11.948Z,21.45
2022-08-16T01:09:22.065Z,21.43
2022-08-16T01:09:33.276Z,21.45
2022-08-16T01:09:42.974Z,21.51
2022-08-16T01:09:52.437Z,21.42
2022-08-16T01:10:02.557Z,21.43
2022-08-16T01:10:16.467Z,21.43
2022-08-16T01:10:32.691Z,21.43
2022-08-16T01:10:33.779Z,21.43
2022-08-16T01:10:43.847Z,21.40
2022-08-16T01:10:54.007Z,21.45
2022-08-16T01:11:04.047Z,21.45
2022-08-16T01:11:14.167Z,21.45
2022-08-16T01:11:24.247Z,21.42
2022-08-16T01:11:34.306Z,21.49
2022-08-16T01:11:51.774Z,21.40
2022-08-16T01:11:56.228Z,21.43
2022-08-16T01:12:08.400Z,21.43
2022-08-16T01:12:26.387Z,21.46
2022-08-16T01:12:27.449Z,21.40
2022-08-16T01:12:37.528Z,21.43
2022-08-16T01:12:47.809Z,21.43
2022-08-16T01:12:57.785Z,21.38
2022-08-16T01:13:08.056Z,21.46
2022-08-16T01:13:17.968Z,21.46
2022-08-16T01:13:28.058Z,21.43
2022-08-16T01:13:38.127Z,21.43
2022-08-16T01:13:48.268Z,21.43
2022-08-16T01:13:58.267Z,21.43
2022-08-16T01:14:08.407Z,21.42
2022-08-16T01:14:20.156Z,21.48
2022-08-16T01:14:29.896Z,21.40
2022-08-16T01:14:39.706Z,21.42
2022-08-16T01:14:49.746Z,21.42
2022-08-16T01:14:59.801Z,21.38
2022-08-16T01:15:09.857Z,21.43
2022-08-16T01:15:20.027Z,21.42
2022-08-16T01:15:30.163Z,21.42
2022-08-16T01:15:43.373Z,21.38
2022-08-16T01:15:52.867Z,21.34
2022-08-16T01:16:00.317Z,21.46
2022-08-16T01:16:10.599Z,21.42
2022-08-16T01:16:20.496Z,21.46
2022-08-16T01:16:30.517Z,21.42
2022-08-16T01:16:40.589Z,21.38
2022-08-16T01:16:50.687Z,21.37
2022-08-16T01:17:00.859Z,21.46
2022-08-16T01:17:10.938Z,21.37
2022-08-16T01:17:21.024Z,21.37
2022-08-16T01:17:36.519Z,21.43
2022-08-16T01:17:42.300Z,21.37
2022-08-16T01:17:55.800Z,21.46
2022-08-16T01:18:02.068Z,21.43
2022-08-16T01:18:39.266Z,21.42
2022-08-16T01:18:39.771Z,21.34
2022-08-16T01:18:40.332Z,21.38
2022-08-16T01:18:45.037Z,21.40
2022-08-16T01:18:55.137Z,21.42
2022-08-16T01:19:05.216Z,21.38
2022-08-16T01:19:15.434Z,21.40
2022-08-16T01:19:25.348Z,21.40
2022-08-16T01:19:35.428Z,21.42
2022-08-16T01:19:46.403Z,21.40
2022-08-16T01:19:56.998Z,21.40
2022-08-16T01:20:23.679Z,21.38
2022-08-16T01:20:23.819Z,21.36
2022-08-16T01:20:30.111Z,21.38
2022-08-16T01:20:38.787Z,21.37
2022-08-16T01:20:48.957Z,21.42
2022-08-16T01:20:58.957Z,21.38
2022-08-16T01:21:08.957Z,21.38
2022-08-16T01:21:22.180Z,21.37
2022-08-16T01:21:33.714Z,21.40
2022-08-16T01:21:40.882Z,21.37
2022-08-16T01:21:50.369Z,21.37
2022-08-16T01:22:46.794Z,21.37
2022-08-16T01:22:47.427Z,21.37
2022-08-16T01:22:47.589Z,21.37
2022-08-16T01:22:47.747Z,21.43
2022-08-16T01:22:49.524Z,21.36
2022-08-16T01:22:55.826Z,21.38
2022-08-16T01:23:08.458Z,21.36
2022-08-16T01:23:17.065Z,21.34
2022-08-16T01:23:25.557Z,21.37
2022-08-16T01:23:58.628Z,21.37
2022-08-16T01:24:00.798Z,21.31
2022-08-16T01:24:01.523Z,21.36
2022-08-16T01:24:51.666Z,21.36
2022-08-16T01:24:52.050Z,21.33
2022-08-16T01:24:52.727Z,21.38
2022-08-16T01:24:53.626Z,21.36
2022-08-16T01:24:55.551Z,21.36
2022-08-16T01:25:02.730Z,21.36
2022-08-16T01:25:12.804Z,21.37
2022-08-16T01:25:22.886Z,21.40
2022-08-16T01:25:34.674Z,21.36
2022-08-16T01:25:44.104Z,21.36
2022-08-16T01:26:00.200Z,21.40
2022-08-16T01:26:33.842Z,21.33
2022-08-16T01:26:34.382Z,21.43
2022-08-16T01:26:34.551Z,21.34
2022-08-16T01:26:37.947Z,21.40
2022-08-16T01:26:48.019Z,21.36
2022-08-16T01:26:58.087Z,21.34
2022-08-16T01:27:09.057Z,21.36
2022-08-16T01:27:19.117Z,21.38
2022-08-16T01:27:29.248Z,21.40
2022-08-16T01:27:39.347Z,21.40
2022-08-16T01:27:49.407Z,21.38
2022-08-16T01:27:59.476Z,21.36
2022-08-16T01:28:09.556Z,21.40
2022-08-16T01:28:20.452Z,21.34
2022-08-16T01:28:30.803Z,21.38
2022-08-16T01:28:45.386Z,21.36
2022-08-16T01:28:50.228Z,21.36
2022-08-16T01:29:00.357Z,21.36
2022-08-16T01:29:10.425Z,21.37
2022-08-16T01:29:20.534Z,21.37
2022-08-16T01:29:37.450Z,21.34
2022-08-16T01:29:57.803Z,21.37
2022-08-16T01:29:58.491Z,21.34
2022-08-16T01:30:04.388Z,21.36
2022-08-16T01:30:19.499Z,21.33
2022-08-16T01:30:26.677Z,21.31
2022-08-16T01:30:36.738Z,21.37
2022-08-16T01:30:49.793Z,21.37
2022-08-16T01:30:56.708Z,21.40
2022-08-16T01:31:06.758Z,21.33
2022-08-16T01:31:16.857Z,21.36
2022-08-16T01:31:30.928Z,21.36
2022-08-16T01:31:42.462Z,21.33
2022-08-16T01:31:48.046Z,21.37
2022-08-16T01:31:58.079Z,21.36
2022-08-16T01:32:09.851Z,21.37
2022-08-16T01:32:31.457Z,21.37
2022-08-16T01:32:33.567Z,21.40
2022-08-16T01:32:40.248Z,21.36
2022-08-16T01:33:02.501Z,21.37
2022-08-16T01:33:14.016Z,21.37
2022-08-16T01:33:14.575Z,21.31
2022-08-16T01:33:22.481Z,21.34
2022-08-16T01:33:33.259Z,21.34
2022-08-16T01:33:44.680Z,21.33
2022-08-16T01:33:52.519Z,21.31
2022-08-16T01:34:02.587Z,21.37
2022-08-16T01:34:25.086Z,21.36
2022-08-16T01:34:26.544Z,21.37
2022-08-16T01:34:34.018Z,21.36
2022-08-16T01:34:47.415Z,21.30
2022-08-16T01:34:56.734Z,21.34
2022-08-16T01:35:06.630Z,21.36
2022-08-16T01:35:17.104Z,21.36
2022-08-16T01:35:26.328Z,21.36
2022-08-16T01:35:36.411Z,21.33
2022-08-16T01:35:46.378Z,21.31
2022-08-16T01:35:57.360Z,21.33
2022-08-16T01:36:12.031Z,21.34
2022-08-16T01:36:18.447Z,21.37
2022-08-16T01:36:28.567Z,21.30
2022-08-16T01:36:38.688Z,21.34
2022-08-16T01:36:48.848Z,21.33
2022-08-16T01:36:59.818Z,21.31
2022-08-16T01:37:09.925Z,21.33
2022-08-16T01:37:20.057Z,21.33
2022-08-16T01:37:35.942Z,21.34
2022-08-16T01:37:42.379Z,21.30
2022-08-16T01:37:54.036Z,21.34
2022-08-16T01:38:00.769Z,21.31
2022-08-16T01:38:10.882Z,21.36
2022-08-16T01:38:21.847Z,21.30
2022-08-16T01:38:31.976Z,21.31
2022-08-16T01:38:46.901Z,21.33
2022-08-16T01:38:56.901Z,21.38
2022-08-16T01:39:03.258Z,21.33
2022-08-16T01:39:14.227Z,21.30
2022-08-16T01:39:24.432Z,21.36
2022-08-16T01:39:35.374Z,21.30
2022-08-16T01:39:44.670Z,21.37
2022-08-16T01:39:54.824Z,21.36
2022-08-16T01:40:06.919Z,21.36
2022-08-16T01:40:15.362Z,21.36
2022-08-16T01:40:25.006Z,21.31
2022-08-16T01:40:35.070Z,21.36
2022-08-16T01:40:45.168Z,21.33
2022-08-16T01:40:55.469Z,21.34
2022-08-16T01:41:05.577Z,21.36
2022-08-16T01:41:19.239Z,21.33
2022-08-16T01:41:25.720Z,21.34
2022-08-16T01:41:41.920Z,21.30
2022-08-16T01:41:46.848Z,21.30
2022-08-16T01:41:56.918Z,21.33
2022-08-16T01:42:12.296Z,21.34
2022-08-16T01:42:17.929Z,21.33
2022-08-16T01:42:28.068Z,21.31
2022-08-16T01:42:38.148Z,21.31
2022-08-16T01:42:49.672Z,21.28
2022-08-16T01:42:59.237Z,21.28
2022-08-16T01:43:09.565Z,21.34
2022-08-16T01:43:19.407Z,21.33
2022-08-16T01:43:29.431Z,21.31
2022-08-16T01:43:40.004Z,21.31
2022-08-16T01:43:53.844Z,21.31
2022-08-16T01:44:01.428Z,21.31
2022-08-16T01:44:09.838Z,21.37
2022-08-16T01:44:19.929Z,21.31
2022-08-16T01:44:37.736Z,21.33
2022-08-16T01:44:40.999Z,21.28
2022-08-16T01:44:52.317Z,21.31
2022-08-16T01:45:01.200Z,21.34
2022-08-16T01:45:11.302Z,21.33
2022-08-16T01:45:21.379Z,21.28
2022-08-16T01:45:39.719Z,21.34
2022-08-16T01:45:43.347Z,21.28
2022-08-16T01:45:56.528Z,21.31
2022-08-16T01:46:29.486Z,21.34
2022-08-16T01:46:37.101Z,21.31
2022-08-16T01:46:37.291Z,21.33
2022-08-16T01:46:39.099Z,21.28
2022-08-16T01:46:47.400Z,21.26
2022-08-16T01:46:57.567Z,21.27
2022-08-16T01:47:07.707Z,21.31
2022-08-16T01:47:17.776Z,21.28
2022-08-16T01:47:27.828Z,21.30
2022-08-16T01:47:37.808Z,21.28
2022-08-16T01:47:49.516Z,21.24
2022-08-16T01:47:58.776Z,21.36
2022-08-16T01:48:15.603Z,21.27
2022-08-16T01:48:20.664Z,21.26
2022-08-16T01:48:30.075Z,21.28
2022-08-16T01:48:40.138Z,21.28
2022-08-16T01:48:51.097Z,21.28
2022-08-16T01:49:01.155Z,21.27
2022-08-16T01:49:11.199Z,21.30
2022-08-16T01:49:21.248Z,21.28
2022-08-16T01:49:43.127Z,21.31
2022-08-16T01:49:45.784Z,21.24
2022-08-16T01:50:41.905Z,21.26
2022-08-16T01:50:42.604Z,21.27
2022-08-16T01:50:43.209Z,21.22
2022-08-16T01:50:43.517Z,21.24
2022-08-16T01:50:59.608Z,21.27
2022-08-16T01:51:08.437Z,21.22
2022-08-16T01:51:09.657Z,21.26
2022-08-16T01:51:16.696Z,21.28
2022-08-16T01:51:20.999Z,21.24
2022-08-16T01:51:31.042Z,21.27
2022-08-16T01:51:41.048Z,21.24
2022-08-16T01:51:51.087Z,21.24
2022-08-16T01:52:01.138Z,21.26
2022-08-16T01:52:29.278Z,21.19
2022-08-16T01:52:29.945Z,21.27
2022-08-16T01:52:33.126Z,21.28
2022-08-16T01:52:46.543Z,21.27
2022-08-16T01:52:53.265Z,21.28
2022-08-16T01:53:03.328Z,21.24
2022-08-16T01:53:13.338Z,21.24
2022-08-16T01:53:23.400Z,21.24
2022-08-16T01:53:33.607Z,21.24
2022-08-16T01:53:43.628Z,21.22
2022-08-16T01:53:55.269Z,21.22
2022-08-16T01:54:03.738Z,21.24
2022-08-16T01:54:15.391Z,21.28
2022-08-16T01:54:30.543Z,21.19
2022-08-16T01:54:34.787Z,21.21
2022-08-16T01:54:44.887Z,21.22
2022-08-16T01:54:54.946Z,21.24
2022-08-16T01:55:05.007Z,21.21
2022-08-16T01:55:15.079Z,21.18
2022-08-16T01:55:25.217Z,21.21
2022-08-16T01:55:35.849Z,21.21
2022-08-16T01:55:54.027Z,21.21
2022-08-16T01:55:57.178Z,21.21
2022-08-16T01:56:07.217Z,21.18
2022-08-16T01:56:23.130Z,21.16
2022-08-16T01:56:29.138Z,21.18
2022-08-16T01:56:39.190Z,21.16
2022-08-16T01:56:49.300Z,21.19
2022-08-16T01:56:59.309Z,21.18
2022-08-16T01:57:09.381Z,21.18
2022-08-16T01:57:22.622Z,21.18
2022-08-16T01:57:31.481Z,21.22
2022-08-16T01:57:39.927Z,21.18
2022-08-16T01:57:53.766Z,21.15
2022-08-16T01:58:01.850Z,21.15
2022-08-16T01:58:12.337Z,21.18
2022-08-16T01:58:22.088Z,21.21
2022-08-16T01:58:32.211Z,21.13
2022-08-16T01:58:48.094Z,21.18
2022-08-16T01:58:53.228Z,21.18
2022-08-16T01:59:03.263Z,21.18
2022-08-16T01:59:15.898Z,21.15
2022-08-16T01:59:23.399Z,21.19
2022-08-16T01:59:33.550Z,21.16
2022-08-16T01:59:43.461Z,21.15
2022-08-16T01:59:54.693Z,21.15
2022-08-16T02:00:03.639Z,21.13
2022-08-16T02:00:19.357Z,21.13
2022-08-16T02:00:28.815Z,21.12
2022-08-16T02:00:35.670Z,21.12
2022-08-16T02:00:45.728Z,21.12
2022-08-16T02:00:55.759Z,21.13
2022-08-16T02:01:05.890Z,21.11
2022-08-16T02:01:15.923Z,21.12
2022-08-16T02:01:28.062Z,21.06
2022-08-16T02:01:36.184Z,21.13
2022-08-16T02:01:49.941Z,21.09
2022-08-16T02:02:00.091Z,21.08
2022-08-16T02:02:26.888Z,21.06
2022-08-16T02:02:27.248Z,21.08
2022-08-16T02:02:29.372Z,21.08
2022-08-16T02:02:45.460Z,21.08
2022-08-16T02:02:52.297Z,21.06
2022-08-16T02:03:00.483Z,21.06
2022-08-16T02:03:12.544Z,21.08
2022-08-16T02:03:24.224Z,21.06
2022-08-16T02:03:30.708Z,21.03
2022-08-16T02:03:40.767Z,21.05
2022-08-16T02:03:51.910Z,21.08
2022-08-16T02:04:10.272Z,21.06
2022-08-16T02:04:11.844Z,21.01
2022-08-16T02:04:48.341Z,21.03
2022-08-16T02:04:48.363Z,21.01
2022-08-16T02:04:54.202Z,21.05
2022-08-16T02:04:55.030Z,21.01
2022-08-16T02:05:04.919Z,21.03
2022-08-16T02:05:14.929Z,21.01
2022-08-16T02:05:24.977Z,21.05
2022-08-16T02:05:35.939Z,21.01
2022-08-16T02:05:46.786Z,21.03
2022-08-16T02:05:57.322Z,21.03
2022-08-16T02:06:08.048Z,21.01
2022-08-16T02:06:17.019Z,21.05
2022-08-16T02:06:34.640Z,21.03
2022-08-16T02:06:38.948Z,21.01
2022-08-16T02:06:49.069Z,20.98
2022-08-16T02:06:59.367Z,21.01
2022-08-16T02:07:11.163Z,21.05
2022-08-16T02:07:23.578Z,21.00
2022-08-16T02:07:30.654Z,21.01
2022-08-16T02:07:39.778Z,21.03
2022-08-16T02:07:49.938Z,21.05
2022-08-16T02:08:00.099Z,21.05
2022-08-16T02:08:10.206Z,21.05
2022-08-16T02:08:33.844Z,21.00
2022-08-16T02:08:33.876Z,21.01
2022-08-16T02:08:42.289Z,21.03
2022-08-16T02:08:52.369Z,21.03
2022-08-16T02:09:02.428Z,21.03
2022-08-16T02:09:12.499Z,21.03
2022-08-16T02:09:22.538Z,21.01
2022-08-16T02:09:33.821Z,21.00
2022-08-16T02:09:42.929Z,21.03
2022-08-16T02:09:58.694Z,21.00
2022-08-16T02:10:04.859Z,20.97
2022-08-16T02:10:14.909Z,21.03
2022-08-16T02:10:25.858Z,21.01
2022-08-16T02:10:34.949Z,21.01
2022-08-16T02:10:45.018Z,21.00
2022-08-16T02:10:55.149Z,21.01
2022-08-16T02:11:05.209Z,21.03
2022-08-16T02:11:15.260Z,21.00
2022-08-16T02:11:25.309Z,21.00
2022-08-16T02:11:48.800Z,20.97
2022-08-16T02:11:52.909Z,20.96
2022-08-16T02:11:58.280Z,20.96
2022-08-16T02:12:49.440Z,20.97
2022-08-16T02:12:50.788Z,20.98
2022-08-16T02:12:51.158Z,20.96
2022-08-16T02:12:51.724Z,20.98
2022-08-16T02:12:55.933Z,20.97
2022-08-16T02:13:03.513Z,20.96
2022-08-16T02:13:13.287Z,20.96